createdAt,value
2019-03-24T00:00:05.580Z,89.50
2019-03-24T00:02:34.170Z,89.30
2019-03-24T00:05:02.791Z,89.50
2019-03-24T00:07:31.457Z,89.80
2019-03-24T00:10:00.333Z,90.00
2019-03-24T00:12:29.079Z,89.80
2019-03-24T00:14:57.811Z,89.20
2019-03-24T00:17:26.443Z,89.20
2019-03-24T00:19:55.043Z,88.70
2019-03-24T00:22:23.674Z,89.10
2019-03-24T00:24:52.373Z,89.80
2019-03-24T00:27:21.106Z,89.30
2019-03-24T00:29:51.269Z,88.90
2019-03-24T00:32:19.847Z,88.80
2019-03-24T00:34:48.436Z,89.00
2019-03-24T00:37:17.249Z,88.90
2019-03-24T00:39:45.810Z,88.40
2019-03-24T00:42:14.582Z,88.70
2019-03-24T00:44:43.233Z,88.40
2019-03-24T00:47:11.985Z,88.00
2019-03-24T00:49:40.578Z,87.80
2019-03-24T00:52:09.494Z,87.50
2019-03-24T00:54:38.251Z,87.40
2019-03-24T00:57:07.029Z,87.50
2019-03-24T00:59:35.622Z,87.60
2019-03-24T01:02:04.466Z,87.70
2019-03-24T01:04:33.094Z,87.60
2019-03-24T01:07:02.035Z,87.60
2019-03-24T01:09:30.698Z,87.80
2019-03-24T01:11:59.740Z,87.40
2019-03-24T01:14:28.308Z,87.50
2019-03-24T01:16:56.901Z,87.40
2019-03-24T01:19:25.532Z,87.60
2019-03-24T01:21:54.175Z,87.00
2019-03-24T01:24:22.839Z,87.10
2019-03-24T01:26:51.443Z,86.80
2019-03-24T01:29:20.216Z,86.90
2019-03-24T01:31:48.867Z,86.90
2019-03-24T01:34:17.561Z,87.00
2019-03-24T01:36:46.218Z,87.10
2019-03-24T01:39:14.874Z,87.00
2019-03-24T01:41:43.503Z,86.70
2019-03-24T01:44:12.187Z,86.60
2019-03-24T01:46:40.751Z,86.30
2019-03-24T01:49:09.316Z,86.10
2019-03-24T01:51:38.061Z,86.00
2019-03-24T01:54:06.673Z,85.30
2019-03-24T01:56:35.270Z,85.00
2019-03-24T01:59:03.925Z,84.80
2019-03-24T02:01:32.485Z,84.60
2019-03-24T02:04:01.047Z,84.50
2019-03-24T02:06:29.651Z,84.20
2019-03-24T02:08:58.228Z,84.50
2019-03-24T02:11:26.908Z,84.30
2019-03-24T02:13:55.552Z,84.30
2019-03-24T02:16:24.097Z,84.20
2019-03-24T02:18:52.703Z,84.00
2019-03-24T02:21:21.370Z,83.90
2019-03-24T02:23:49.961Z,83.80
2019-03-24T02:26:18.710Z,83.80
2019-03-24T02:28:47.372Z,83.60
2019-03-24T02:31:15.936Z,83.50
2019-03-24T02:33:44.553Z,83.70
2019-03-24T02:36:13.183Z,83.90
2019-03-24T02:38:41.775Z,83.90
2019-03-24T02:41:10.463Z,84.00
2019-03-24T02:43:39.058Z,84.00
2019-03-24T02:46:07.793Z,84.10
2019-03-24T02:48:36.376Z,84.30
2019-03-24T02:51:05.129Z,85.00
2019-03-24T02:53:33.667Z,84.30
2019-03-24T02:56:02.262Z,84.50
2019-03-24T02:58:30.816Z,84.60
2019-03-24T03:00:59.668Z,84.70
2019-03-24T03:03:28.222Z,84.70
2019-03-24T03:05:56.783Z,85.00
2019-03-24T03:08:25.419Z,85.10
2019-03-24T03:10:54.077Z,85.10
2019-03-24T03:13:23.077Z,85.20
2019-03-24T03:15:51.705Z,85.40
2019-03-24T03:18:20.308Z,85.40
2019-03-24T03:20:48.874Z,85.50
2019-03-24T03:23:17.581Z,85.50
2019-03-24T03:25:46.218Z,85.70
2019-03-24T03:28:14.778Z,85.80
2019-03-24T03:30:43.357Z,86.90
2019-03-24T03:33:12.065Z,86.30
2019-03-24T03:35:40.621Z,86.50
2019-03-24T03:38:09.609Z,86.70
2019-03-24T03:40:38.190Z,86.80
2019-03-24T03:43:07.744Z,87.20
2019-03-24T03:45:39.110Z,87.40
2019-03-24T03:48:06.675Z,87.30
2019-03-24T03:50:35.292Z,87.40
2019-03-24T03:53:03.940Z,87.40
2019-03-24T03:55:32.570Z,87.30
2019-03-24T03:58:01.208Z,87.50
2019-03-24T04:00:36.968Z,87.50
2019-03-24T04:03:06.510Z,87.30
2019-03-24T04:05:35.262Z,87.50
2019-03-24T04:08:04.347Z,87.50
2019-03-24T04:10:33.140Z,87.60
2019-03-24T04:13:01.739Z,87.70
2019-03-24T04:15:30.321Z,87.60
2019-03-24T04:17:58.988Z,87.60
2019-03-24T04:20:27.642Z,87.70
2019-03-24T04:22:56.193Z,87.80
2019-03-24T04:25:24.844Z,87.70
2019-03-24T04:27:53.727Z,87.70
2019-03-24T04:30:22.386Z,87.70
2019-03-24T04:32:50.982Z,87.90
2019-03-24T04:35:19.567Z,87.90
2019-03-24T04:37:48.212Z,88.10
2019-03-24T04:40:16.833Z,88.30
2019-03-24T04:42:45.450Z,88.30
2019-03-24T04:45:14.685Z,88.40
2019-03-24T04:47:43.269Z,88.40
2019-03-24T04:50:12.309Z,88.40
2019-03-24T04:52:40.954Z,88.50
2019-03-24T04:55:10.121Z,88.90
2019-03-24T04:57:38.914Z,88.80
2019-03-24T05:00:09.278Z,88.70
2019-03-24T05:02:38.364Z,88.70
2019-03-24T05:05:08.124Z,88.80
2019-03-24T05:07:37.225Z,88.90
2019-03-24T05:10:08.939Z,88.80
2019-03-24T05:12:37.490Z,88.40
2019-03-24T05:15:06.329Z,88.50
2019-03-24T05:17:34.924Z,88.60
2019-03-24T05:20:04.485Z,88.70
2019-03-24T05:22:33.091Z,88.50
2019-03-24T05:25:01.683Z,88.40
2019-03-24T05:27:30.281Z,88.30
2019-03-24T05:29:58.838Z,88.20
2019-03-24T05:32:27.438Z,87.90
2019-03-24T05:34:56.010Z,87.80
2019-03-24T05:37:24.846Z,87.60
2019-03-24T05:39:53.412Z,87.40
2019-03-24T05:42:21.969Z,87.30
2019-03-24T05:44:50.612Z,87.30
2019-03-24T05:47:19.202Z,87.10
2019-03-24T05:49:47.894Z,87.00
2019-03-24T05:52:16.482Z,86.80
2019-03-24T05:54:45.080Z,86.50
2019-03-24T05:57:13.722Z,86.30
2019-03-24T05:59:42.686Z,86.10
2019-03-24T06:02:11.330Z,86.80
2019-03-24T06:04:39.941Z,85.70
2019-03-24T06:07:09.181Z,85.50
2019-03-24T06:09:37.904Z,85.00
2019-03-24T06:12:06.598Z,84.90
2019-03-24T06:14:35.405Z,84.70
2019-03-24T06:17:04.006Z,84.30
2019-03-24T06:19:32.678Z,84.40
2019-03-24T06:22:01.346Z,84.60
2019-03-24T06:24:30.130Z,84.50
2019-03-24T06:26:58.797Z,83.90
2019-03-24T06:29:27.466Z,83.90
2019-03-24T06:31:56.159Z,84.10
2019-03-24T06:34:24.735Z,83.50
2019-03-24T06:36:53.343Z,83.10
2019-03-24T06:39:21.938Z,83.00
2019-03-24T06:41:50.611Z,82.90
2019-03-24T06:44:19.157Z,82.30
2019-03-24T06:46:47.978Z,82.50
2019-03-24T06:49:18.105Z,82.00
2019-03-24T06:51:46.763Z,81.80
2019-03-24T06:54:15.563Z,81.50
2019-03-24T06:56:44.246Z,81.40
2019-03-24T06:59:12.881Z,81.00
2019-03-24T07:01:41.502Z,80.70
2019-03-24T07:04:10.605Z,80.20
2019-03-24T07:06:39.140Z,80.30
2019-03-24T07:09:07.962Z,80.50
2019-03-24T07:11:36.755Z,80.40
2019-03-24T07:14:05.642Z,79.50
2019-03-24T07:16:34.382Z,78.80
2019-03-24T07:19:03.068Z,78.80
2019-03-24T07:21:31.733Z,78.60
2019-03-24T07:24:00.634Z,78.30
2019-03-24T07:26:29.563Z,77.70
2019-03-24T07:28:58.129Z,77.70
2019-03-24T07:31:27.819Z,77.60
2019-03-24T07:33:56.413Z,76.90
2019-03-24T07:36:25.010Z,76.00
2019-03-24T07:38:54.787Z,75.40
2019-03-24T07:41:23.487Z,75.00
2019-03-24T07:43:52.304Z,74.90
2019-03-24T07:46:20.830Z,75.30
2019-03-24T07:48:49.489Z,75.40
2019-03-24T07:51:18.155Z,73.60
2019-03-24T07:53:46.762Z,74.40
2019-03-24T07:56:15.339Z,73.90
2019-03-24T07:58:45.829Z,73.70
2019-03-24T08:01:14.174Z,73.20
2019-03-24T08:03:42.971Z,73.00
2019-03-24T08:06:11.534Z,72.80
2019-03-24T08:08:44.204Z,72.30
2019-03-24T08:11:10.890Z,72.30
2019-03-24T08:13:39.566Z,71.40
2019-03-24T08:16:08.575Z,71.20
2019-03-24T08:18:37.160Z,71.30
2019-03-24T08:21:05.878Z,70.90
2019-03-24T08:23:34.664Z,70.80
2019-03-24T08:26:03.606Z,70.00
2019-03-24T08:28:32.267Z,69.50
2019-03-24T08:31:01.284Z,68.20
2019-03-24T08:33:29.986Z,67.30
2019-03-24T08:35:58.678Z,67.40
2019-03-24T08:38:27.564Z,66.30
2019-03-24T08:40:56.399Z,66.10
2019-03-24T08:43:25.320Z,65.70
2019-03-24T08:45:53.874Z,65.20
2019-03-24T08:48:22.475Z,64.50
2019-03-24T08:50:51.235Z,64.20
2019-03-24T08:53:19.808Z,64.50
2019-03-24T08:55:48.402Z,63.20
2019-03-24T08:58:17.013Z,63.60
2019-03-24T09:00:45.785Z,64.30
2019-03-24T09:03:14.395Z,62.60
2019-03-24T09:05:43.101Z,59.60
2019-03-24T09:08:11.826Z,56.20
2019-03-24T09:10:40.831Z,52.40
2019-03-24T09:13:09.423Z,50.70
2019-03-24T09:15:38.066Z,49.90
2019-03-24T09:18:06.762Z,49.50
2019-03-24T09:20:41.520Z,48.60
2019-03-24T09:23:05.797Z,47.00
2019-03-24T09:25:34.624Z,44.20
2019-03-24T09:28:04.110Z,44.40
2019-03-24T09:30:37.207Z,44.30
2019-03-24T09:33:06.358Z,44.00
2019-03-24T09:35:35.150Z,44.10
2019-03-24T09:38:04.235Z,41.20
2019-03-24T09:40:35.038Z,41.00
2019-03-24T09:43:04.327Z,40.90
2019-03-24T09:45:33.681Z,38.80
2019-03-24T09:48:02.370Z,38.90
2019-03-24T09:50:31.440Z,36.60
2019-03-24T09:53:00.225Z,36.80
2019-03-24T09:55:28.933Z,37.20
2019-03-24T09:57:57.638Z,37.10
2019-03-24T10:00:26.403Z,35.70
2019-03-24T10:02:55.078Z,36.10
2019-03-24T10:05:23.827Z,35.50
2019-03-24T10:07:52.470Z,35.60
2019-03-24T10:10:21.089Z,34.50
2019-03-24T10:12:49.803Z,33.70
2019-03-24T10:15:18.403Z,32.00
2019-03-24T10:17:47.144Z,31.50
2019-03-24T10:20:15.881Z,33.20
2019-03-24T10:22:44.605Z,32.70
2019-03-24T10:25:13.347Z,31.30
2019-03-24T10:27:42.016Z,32.40
2019-03-24T10:30:10.882Z,34.00
2019-03-24T10:32:39.605Z,33.00
2019-03-24T10:35:08.646Z,31.80
2019-03-24T10:37:37.351Z,29.10
2019-03-24T10:40:06.693Z,30.80
2019-03-24T10:42:35.437Z,29.50
2019-03-24T10:45:05.796Z,27.50
2019-03-24T10:47:34.533Z,27.80
2019-03-24T10:50:03.934Z,26.90
2019-03-24T10:52:32.576Z,25.90
2019-03-24T10:55:01.307Z,27.40
2019-03-24T10:57:29.876Z,27.20
2019-03-24T10:59:58.556Z,27.00
2019-03-24T11:02:27.140Z,27.20
2019-03-24T11:04:55.822Z,29.10
2019-03-24T11:07:24.422Z,29.30
2019-03-24T11:09:53.164Z,29.00
2019-03-24T11:12:21.788Z,29.10
2019-03-24T11:14:50.402Z,29.40
2019-03-24T11:17:19.029Z,28.10
2019-03-24T11:19:47.912Z,28.00
2019-03-24T11:22:16.571Z,27.30
2019-03-24T11:24:45.188Z,26.80
2019-03-24T11:27:13.866Z,25.30
2019-03-24T11:29:42.446Z,24.50
2019-03-24T11:32:11.120Z,22.30
2019-03-24T11:34:39.832Z,22.90
2019-03-24T11:37:08.411Z,24.00
2019-03-24T11:39:37.016Z,25.80
2019-03-24T11:42:05.730Z,25.10
2019-03-24T11:44:34.905Z,23.00
2019-03-24T11:47:03.767Z,23.60
2019-03-24T11:49:45.522Z,24.30
2019-03-24T11:52:05.569Z,24.90
2019-03-24T11:54:34.325Z,23.40
2019-03-24T11:57:02.950Z,23.30
2019-03-24T11:59:31.534Z,22.20
2019-03-24T12:02:00.162Z,21.90
2019-03-24T12:04:28.860Z,24.40
2019-03-24T12:06:57.560Z,23.30
2019-03-24T12:09:26.313Z,22.10
2019-03-24T12:11:54.914Z,19.40
2019-03-24T12:14:23.537Z,20.30
2019-03-24T12:16:52.161Z,20.30
2019-03-24T12:19:20.691Z,20.90
2019-03-24T12:21:49.421Z,23.50
2019-03-24T12:24:18.020Z,23.10
2019-03-24T12:26:46.587Z,23.20
2019-03-24T12:29:15.295Z,23.40
2019-03-24T12:31:44.026Z,21.00
2019-03-24T12:34:12.739Z,19.70
2019-03-24T12:36:41.427Z,21.70
2019-03-24T12:39:10.186Z,20.90
2019-03-24T12:41:38.830Z,22.30
2019-03-24T12:44:07.526Z,21.30
2019-03-24T12:46:36.141Z,20.40
2019-03-24T12:49:04.877Z,19.20
2019-03-24T12:51:33.539Z,17.40
2019-03-24T12:54:02.206Z,17.10
2019-03-24T12:56:30.885Z,17.10
2019-03-24T12:58:59.539Z,17.60
2019-03-24T13:01:28.151Z,20.00
2019-03-24T13:03:56.762Z,21.10
2019-03-24T13:06:25.424Z,20.20
2019-03-24T13:08:54.071Z,18.50
2019-03-24T13:11:22.851Z,17.60
2019-03-24T13:13:51.452Z,18.60
2019-03-24T13:16:20.047Z,18.70
2019-03-24T13:18:48.618Z,20.80
2019-03-24T13:21:17.294Z,19.60
2019-03-24T13:23:45.891Z,18.10
2019-03-24T13:26:14.519Z,18.50
2019-03-24T13:28:43.321Z,19.10
2019-03-24T13:31:11.927Z,17.70
2019-03-24T13:33:40.751Z,17.20
2019-03-24T13:36:11.063Z,17.00
2019-03-24T13:38:39.671Z,16.90
2019-03-24T13:41:08.339Z,17.20
2019-03-24T13:43:36.941Z,16.60
2019-03-24T13:46:05.636Z,15.80
2019-03-24T13:48:34.475Z,18.00
2019-03-24T13:51:03.031Z,16.50
2019-03-24T13:53:31.651Z,16.80
2019-03-24T13:56:00.423Z,17.30
2019-03-24T13:58:29.006Z,17.40
2019-03-24T14:00:57.742Z,16.30
2019-03-24T14:03:26.370Z,16.40
2019-03-24T14:05:54.932Z,18.50
2019-03-24T14:08:23.591Z,18.70
2019-03-24T14:10:52.173Z,20.10
2019-03-24T14:13:20.734Z,20.60
2019-03-24T14:15:49.417Z,20.00
2019-03-24T14:18:18.083Z,19.40
2019-03-24T14:20:46.726Z,18.10
2019-03-24T14:23:15.299Z,18.40
2019-03-24T14:25:43.965Z,19.40
2019-03-24T14:28:12.599Z,19.30
2019-03-24T14:30:43.922Z,22.00
2019-03-24T14:33:12.854Z,20.50
2019-03-24T14:35:41.969Z,20.40
2019-03-24T14:38:10.600Z,20.80
2019-03-24T14:40:39.763Z,20.70
2019-03-24T14:43:08.475Z,21.70
2019-03-24T14:45:37.204Z,21.00
2019-03-24T14:48:05.993Z,20.00
2019-03-24T14:50:34.571Z,19.80
2019-03-24T14:53:03.278Z,20.70
2019-03-24T14:55:31.915Z,20.40
2019-03-24T14:58:00.591Z,22.00
2019-03-24T15:00:37.967Z,21.80
2019-03-24T15:03:06.657Z,22.00
2019-03-24T15:05:35.792Z,22.40
2019-03-24T15:08:06.402Z,22.20
2019-03-24T15:10:35.139Z,21.70
2019-03-24T15:13:04.399Z,22.90
2019-03-24T15:15:33.078Z,24.30
2019-03-24T15:18:01.727Z,24.80
2019-03-24T15:20:30.444Z,24.80
2019-03-24T15:22:59.128Z,25.80
2019-03-24T15:25:27.806Z,27.00
2019-03-24T15:27:56.566Z,27.10
2019-03-24T15:30:25.316Z,26.90
2019-03-24T15:32:53.949Z,26.90
2019-03-24T15:35:22.662Z,27.40
2019-03-24T15:37:51.282Z,27.00
2019-03-24T15:40:20.092Z,27.00
2019-03-24T15:42:48.688Z,27.30
2019-03-24T15:45:17.389Z,27.80
2019-03-24T15:47:46.064Z,28.30
2019-03-24T15:50:15.082Z,29.10
2019-03-24T15:52:43.682Z,30.00
2019-03-24T15:55:12.887Z,31.80
2019-03-24T15:57:41.523Z,32.90
2019-03-24T16:00:11.541Z,32.60
2019-03-24T16:02:40.350Z,35.00
2019-03-24T16:05:09.675Z,35.90
2019-03-24T16:07:38.345Z,36.50
2019-03-24T16:10:08.046Z,37.80
2019-03-24T16:12:36.990Z,38.60
2019-03-24T16:15:07.664Z,40.00
2019-03-24T16:17:38.477Z,40.70
2019-03-24T16:20:07.626Z,42.00
2019-03-24T16:22:36.196Z,42.40
2019-03-24T16:25:07.435Z,43.60
2019-03-24T16:27:36.074Z,43.30
2019-03-24T16:30:06.953Z,44.50
2019-03-24T16:32:35.951Z,43.90
2019-03-24T16:35:05.864Z,44.40
2019-03-24T16:37:34.448Z,44.90
2019-03-24T16:40:03.836Z,44.20
2019-03-24T16:42:32.435Z,45.10
2019-03-24T16:45:01.107Z,44.80
2019-03-24T16:47:29.871Z,43.80
2019-03-24T16:49:58.450Z,45.00
2019-03-24T16:52:27.136Z,46.00
2019-03-24T16:54:55.777Z,45.00
2019-03-24T16:57:24.435Z,45.60
2019-03-24T16:59:53.309Z,46.60
2019-03-24T17:02:21.998Z,47.40
2019-03-24T17:04:50.703Z,47.70
2019-03-24T17:07:19.323Z,48.60
2019-03-24T17:09:47.964Z,48.70
2019-03-24T17:12:16.716Z,49.10
2019-03-24T17:14:45.714Z,49.70
2019-03-24T17:17:14.499Z,50.20
2019-03-24T17:19:43.186Z,50.60
2019-03-24T17:22:11.927Z,50.00
2019-03-24T17:24:40.788Z,49.20
2019-03-24T17:27:09.743Z,48.50
2019-03-24T17:29:44.132Z,46.20
2019-03-24T17:32:12.762Z,47.50
2019-03-24T17:34:41.591Z,46.00
2019-03-24T17:37:10.331Z,46.10
2019-03-24T17:39:39.120Z,46.50
2019-03-24T17:42:07.794Z,46.40
2019-03-24T17:44:36.426Z,46.30
2019-03-24T17:47:05.150Z,46.30
2019-03-24T17:49:34.061Z,46.80
2019-03-24T17:52:02.796Z,46.20
2019-03-24T17:54:31.402Z,46.20
2019-03-24T17:57:00.218Z,46.70
2019-03-24T17:59:28.953Z,46.30
2019-03-24T18:01:57.813Z,46.60
2019-03-24T18:04:26.370Z,46.70
2019-03-24T18:06:55.051Z,46.90
2019-03-24T18:09:23.647Z,47.00
2019-03-24T18:11:52.286Z,47.70
2019-03-24T18:14:20.889Z,47.80
2019-03-24T18:16:49.881Z,48.20
2019-03-24T18:19:18.547Z,48.80
2019-03-24T18:21:47.199Z,49.00
2019-03-24T18:24:15.787Z,49.10
2019-03-24T18:26:44.431Z,49.70
2019-03-24T18:29:13.293Z,49.90
2019-03-24T18:31:41.915Z,50.10
2019-03-24T18:34:10.531Z,50.70
2019-03-24T18:36:39.204Z,50.40
2019-03-24T18:39:09.235Z,50.20
2019-03-24T18:41:38.004Z,50.40
2019-03-24T18:44:06.914Z,50.20
2019-03-24T18:46:35.926Z,50.80
2019-03-24T18:49:04.926Z,50.80
2019-03-24T18:51:33.577Z,50.80
2019-03-24T18:54:02.339Z,50.40
2019-03-24T18:56:31.036Z,51.00
2019-03-24T18:59:09.461Z,51.00
2019-03-24T19:01:38.887Z,51.30
2019-03-24T19:04:08.674Z,51.10
2019-03-24T19:06:37.665Z,51.30
2019-03-24T19:09:09.124Z,51.50
2019-03-24T19:11:38.346Z,51.80
2019-03-24T19:14:11.829Z,51.80
2019-03-24T19:16:40.465Z,52.00
2019-03-24T19:19:09.203Z,52.20
2019-03-24T19:21:37.827Z,52.20
2019-03-24T19:24:06.751Z,52.40
2019-03-24T19:26:35.498Z,52.70
2019-03-24T19:29:04.383Z,52.70
2019-03-24T19:31:33.413Z,52.60
2019-03-24T19:34:09.862Z,52.70
2019-03-24T19:36:38.773Z,52.70
2019-03-24T19:39:13.422Z,52.80
2019-03-24T19:41:42.195Z,53.10
2019-03-24T19:44:10.979Z,53.10
2019-03-24T19:46:39.635Z,53.50
2019-03-24T19:49:08.587Z,53.50
2019-03-24T19:51:38.748Z,53.60
2019-03-24T19:54:07.969Z,53.70
2019-03-24T19:56:36.542Z,53.60
2019-03-24T19:59:05.447Z,53.50
2019-03-24T20:01:35.613Z,54.00
2019-03-24T20:04:04.499Z,53.80
2019-03-24T20:06:33.207Z,54.10
2019-03-24T20:09:04.612Z,53.90
2019-03-24T20:11:33.332Z,54.00
2019-03-24T20:14:02.100Z,53.80
2019-03-24T20:16:30.854Z,54.00
2019-03-24T20:18:59.542Z,54.30
2019-03-24T20:21:28.321Z,54.30
2019-03-24T20:23:58.580Z,54.40
2019-03-24T20:26:27.806Z,54.80
2019-03-24T20:28:56.550Z,54.90
2019-03-24T20:31:25.306Z,55.30
2019-03-24T20:33:54.163Z,55.60
2019-03-24T20:36:22.879Z,56.00
2019-03-24T20:38:51.684Z,56.30
2019-03-24T20:41:20.297Z,56.40
2019-03-24T20:43:49.323Z,56.30
2019-03-24T20:46:18.091Z,56.40
2019-03-24T20:48:46.655Z,56.60
2019-03-24T20:51:15.350Z,56.80
2019-03-24T20:53:44.228Z,56.90
2019-03-24T20:56:14.687Z,57.00
2019-03-24T20:58:42.958Z,57.40
2019-03-24T21:01:11.757Z,57.60
2019-03-24T21:03:40.466Z,57.60
2019-03-24T21:06:09.066Z,57.70
2019-03-24T21:08:37.738Z,57.90
2019-03-24T21:11:06.367Z,58.40
2019-03-24T21:13:35.035Z,58.10
2019-03-24T21:16:05.787Z,58.40
2019-03-24T21:18:34.752Z,58.40
2019-03-24T21:21:03.381Z,58.60
2019-03-24T21:23:31.968Z,58.60
2019-03-24T21:26:00.589Z,58.60
2019-03-24T21:28:29.175Z,58.50
2019-03-24T21:30:57.796Z,58.90
2019-03-24T21:33:26.399Z,59.20
2019-03-24T21:35:54.946Z,59.40
2019-03-24T21:38:23.638Z,59.60
2019-03-24T21:40:52.209Z,59.70
2019-03-24T21:43:20.976Z,59.90
2019-03-24T21:45:49.960Z,60.20
2019-03-24T21:48:18.838Z,60.70
2019-03-24T21:50:47.503Z,61.20
2019-03-24T21:53:16.178Z,61.70
2019-03-24T21:55:44.742Z,62.20
2019-03-24T21:58:13.347Z,62.70
2019-03-24T22:00:42.337Z,63.10
2019-03-24T22:03:12.367Z,63.20
2019-03-24T22:05:40.967Z,63.80
2019-03-24T22:08:09.661Z,63.90
2019-03-24T22:10:38.222Z,64.00
2019-03-24T22:13:06.933Z,64.00
2019-03-24T22:15:35.767Z,64.50
2019-03-24T22:18:04.794Z,64.90
2019-03-24T22:20:33.414Z,65.20
2019-03-24T22:23:01.976Z,65.30
2019-03-24T22:25:30.609Z,65.80
2019-03-24T22:27:59.422Z,66.30
2019-03-24T22:30:29.284Z,67.30
2019-03-24T22:32:58.209Z,66.80
2019-03-24T22:35:26.829Z,66.90
2019-03-24T22:37:55.538Z,67.30
2019-03-24T22:40:24.375Z,67.30
2019-03-24T22:42:52.982Z,67.40
2019-03-24T22:45:21.545Z,68.10
2019-03-24T22:47:50.146Z,68.30
2019-03-24T22:50:18.731Z,68.40
2019-03-24T22:52:47.327Z,69.20
2019-03-24T22:55:16.168Z,68.40
2019-03-24T22:57:44.731Z,68.90
2019-03-24T23:00:17.866Z,69.40
2019-03-24T23:02:46.543Z,69.60
2019-03-24T23:05:15.201Z,69.20
2019-03-24T23:07:43.772Z,70.20
2019-03-24T23:10:12.910Z,70.70
2019-03-24T23:12:41.591Z,70.90
2019-03-24T23:15:10.460Z,71.10
2019-03-24T23:17:39.084Z,71.00
2019-03-24T23:20:09.586Z,70.90
2019-03-24T23:22:38.131Z,71.10
2019-03-24T23:25:08.126Z,71.50
2019-03-24T23:27:36.867Z,72.10
2019-03-24T23:30:08.611Z,72.70
2019-03-24T23:32:37.276Z,72.90
2019-03-24T23:35:07.369Z,73.30
2019-03-24T23:37:36.022Z,74.00
2019-03-24T23:40:06.238Z,74.30
2019-03-24T23:42:34.984Z,74.60
2019-03-24T23:45:04.722Z,75.00
2019-03-24T23:47:33.323Z,75.20
2019-03-24T23:50:01.920Z,75.60
2019-03-24T23:52:30.513Z,75.90
2019-03-24T23:54:59.317Z,76.60
2019-03-24T23:57:27.905Z,77.20
2019-03-24T23:59:56.461Z,78.00
